sensor_id;sensor_type;location;lat;lon;timestamp;temperature;humidity
13174;DHT22;6652;48.802;9.190;2023-05-15T00:02:26;10.90;99.90
13174;DHT22;6652;48.802;9.190;2023-05-15T00:04:53;10.90;99.90
13174;DHT22;6652;48.802;9.190;2023-05-15T00:07:19;10.90;99.90
13174;DHT22;6652;48.802;9.190;2023-05-15T00:09:46;11.00;99.90
13174;DHT22;6652;48.802;9.190;2023-05-15T00:12:14;11.00;99.90
13174;DHT22;6652;48.802;9.190;2023-05-15T00:14:41;11.00;99.90
13174;DHT22;6652;48.802;9.190;2023-05-15T00:17:08;11.00;99.90
13174;DHT22;6652;48.802;9.190;2023-05-15T00:19:35;11.00;99.90
13174;DHT22;6652;48.802;9.190;2023-05-15T00:22:02;11.10;99.90
13174;DHT22;6652;48.802;9.190;2023-05-15T00:24:28;11.10;99.90
13174;DHT22;6652;48.802;9.190;2023-05-15T00:26:55;11.10;99.90
13174;DHT22;6652;48.802;9.190;2023-05-15T00:29:24;11.10;99.90
13174;DHT22;6652;48.802;9.190;2023-05-15T00:31:51;11.10;99.90
13174;DHT22;6652;48.802;9.190;2023-05-15T00:34:20;11.10;99.90
13174;DHT22;6652;48.802;9.190;2023-05-15T00:36:47;11.20;99.90
13174;DHT22;6652;48.802;9.190;2023-05-15T00:39:14;11.20;99.90
13174;DHT22;6652;48.802;9.190;2023-05-15T00:41:42;11.30;99.90
13174;DHT22;6652;48.802;9.190;2023-05-15T00:44:10;11.40;99.90
13174;DHT22;6652;48.802;9.190;2023-05-15T00:46:39;11.30;99.90
13174;DHT22;6652;48.802;9.190;2023-05-15T00:49:07;11.30;99.90
13174;DHT22;6652;48.802;9.190;2023-05-15T00:51:38;11.30;99.90
13174;DHT22;6652;48.802;9.190;2023-05-15T00:54:06;11.40;99.90
13174;DHT22;6652;48.802;9.190;2023-05-15T00:56:33;11.40;99.90
13174;DHT22;6652;48.802;9.190;2023-05-15T00:59:02;11.40;99.90
13174;DHT22;6652;48.802;9.190;2023-05-15T01:01:29;11.40;99.90
13174;DHT22;6652;48.802;9.190;2023-05-15T01:04:00;11.40;99.90
13174;DHT22;6652;48.802;9.190;2023-05-15T01:06:28;11.40;99.90
13174;DHT22;6652;48.802;9.190;2023-05-15T01:08:56;11.40;99.90
13174;DHT22;6652;48.802;9.190;2023-05-15T01:11:27;11.50;99.90
13174;DHT22;6652;48.802;9.190;2023-05-15T01:14:02;11.40;99.90
13174;DHT22;6652;48.802;9.190;2023-05-15T01:16:28;11.40;99.90
13174;DHT22;6652;48.802;9.190;2023-05-15T01:18:55;11.40;99.90
13174;DHT22;6652;48.802;9.190;2023-05-15T01:21:41;11.40;99.90
13174;DHT22;6652;48.802;9.190;2023-05-15T01:24:22;11.50;99.90
13174;DHT22;6652;48.802;9.190;2023-05-15T01:27:05;11.40;99.90
13174;DHT22;6652;48.802;9.190;2023-05-15T01:29:36;11.40;99.90
13174;DHT22;6652;48.802;9.190;2023-05-15T01:32:09;11.40;99.90
13174;DHT22;6652;48.802;9.190;2023-05-15T01:34:41;11.30;99.90
13174;DHT22;6652;48.802;9.190;2023-05-15T01:37:12;11.30;99.90
13174;DHT22;6652;48.802;9.190;2023-05-15T01:39:41;11.40;99.90
13174;DHT22;6652;48.802;9.190;2023-05-15T01:42:14;11.40;99.90
13174;DHT22;6652;48.802;9.190;2023-05-15T01:44:44;11.40;99.90
13174;DHT22;6652;48.802;9.190;2023-05-15T01:47:13;11.40;99.90
13174;DHT22;6652;48.802;9.190;2023-05-15T01:49:42;11.40;99.90
13174;DHT22;6652;48.802;9.190;2023-05-15T01:52:13;11.40;99.90
13174;DHT22;6652;48.802;9.190;2023-05-15T01:54:42;11.50;99.90
13174;DHT22;6652;48.802;9.190;2023-05-15T01:57:09;11.30;99.90
13174;DHT22;6652;48.802;9.190;2023-05-15T01:59:39;11.50;99.90
13174;DHT22;6652;48.802;9.190;2023-05-15T02:02:07;11.50;99.90
13174;DHT22;6652;48.802;9.190;2023-05-15T02:04:37;11.50;99.90
13174;DHT22;6652;48.802;9.190;2023-05-15T02:07:04;11.40;99.90
13174;DHT22;6652;48.802;9.190;2023-05-15T02:09:32;11.50;99.90
13174;DHT22;6652;48.802;9.190;2023-05-15T02:12:00;11.40;99.90
13174;DHT22;6652;48.802;9.190;2023-05-15T02:14:28;11.40;99.90
13174;DHT22;6652;48.802;9.190;2023-05-15T02:16:56;11.40;99.90
13174;DHT22;6652;48.802;9.190;2023-05-15T02:19:23;11.40;99.90
13174;DHT22;6652;48.802;9.190;2023-05-15T02:21:50;11.40;99.90
13174;DHT22;6652;48.802;9.190;2023-05-15T02:24:17;11.40;99.90
13174;DHT22;6652;48.802;9.190;2023-05-15T02:26:49;11.30;99.90
13174;DHT22;6652;48.802;9.190;2023-05-15T02:29:27;11.30;99.90
13174;DHT22;6652;48.802;9.190;2023-05-15T02:32:13;11.30;99.90
13174;DHT22;6652;48.802;9.190;2023-05-15T02:34:50;11.20;99.90
13174;DHT22;6652;48.802;9.190;2023-05-15T02:37:23;11.20;99.90
13174;DHT22;6652;48.802;9.190;2023-05-15T02:39:52;11.20;99.90
13174;DHT22;6652;48.802;9.190;2023-05-15T02:42:23;11.10;99.90
13174;DHT22;6652;48.802;9.190;2023-05-15T02:44:52;11.20;99.90
13174;DHT22;6652;48.802;9.190;2023-05-15T02:47:22;11.20;99.90
13174;DHT22;6652;48.802;9.190;2023-05-15T02:49:49;11.30;99.90
13174;DHT22;6652;48.802;9.190;2023-05-15T02:52:16;11.10;99.90
13174;DHT22;6652;48.802;9.190;2023-05-15T02:54:43;11.20;99.90
13174;DHT22;6652;48.802;9.190;2023-05-15T02:57:10;11.30;99.90
13174;DHT22;6652;48.802;9.190;2023-05-15T02:59:37;11.30;99.90
13174;DHT22;6652;48.802;9.190;2023-05-15T03:02:04;11.30;99.90
13174;DHT22;6652;48.802;9.190;2023-05-15T03:04:32;11.40;99.90
13174;DHT22;6652;48.802;9.190;2023-05-15T03:06:59;11.40;99.90
13174;DHT22;6652;48.802;9.190;2023-05-15T03:09:26;11.40;99.90
13174;DHT22;6652;48.802;9.190;2023-05-15T03:11:52;11.40;99.90
13174;DHT22;6652;48.802;9.190;2023-05-15T03:14:19;11.50;99.90
13174;DHT22;6652;48.802;9.190;2023-05-15T03:16:46;11.50;99.90
13174;DHT22;6652;48.802;9.190;2023-05-15T03:19:13;11.50;99.90
13174;DHT22;6652;48.802;9.190;2023-05-15T03:21:41;11.50;99.90
13174;DHT22;6652;48.802;9.190;2023-05-15T03:24:08;11.50;99.90
13174;DHT22;6652;48.802;9.190;2023-05-15T03:26:35;11.50;99.90
13174;DHT22;6652;48.802;9.190;2023-05-15T03:29:02;11.50;99.90
13174;DHT22;6652;48.802;9.190;2023-05-15T03:31:28;11.50;99.90
13174;DHT22;6652;48.802;9.190;2023-05-15T03:33:55;11.50;99.90
13174;DHT22;6652;48.802;9.190;2023-05-15T03:36:22;11.40;99.90
13174;DHT22;6652;48.802;9.190;2023-05-15T03:38:50;11.50;99.90
13174;DHT22;6652;48.802;9.190;2023-05-15T03:41:17;11.50;99.90
13174;DHT22;6652;48.802;9.190;2023-05-15T03:43:44;11.50;99.90
13174;DHT22;6652;48.802;9.190;2023-05-15T03:46:11;11.50;99.90
13174;DHT22;6652;48.802;9.190;2023-05-15T03:48:37;11.50;99.90
13174;DHT22;6652;48.802;9.190;2023-05-15T03:51:04;11.50;99.90
13174;DHT22;6652;48.802;9.190;2023-05-15T03:53:31;11.60;99.90
13174;DHT22;6652;48.802;9.190;2023-05-15T03:55:59;11.60;99.90
13174;DHT22;6652;48.802;9.190;2023-05-15T03:58:26;11.60;99.90
13174;DHT22;6652;48.802;9.190;2023-05-15T04:00:53;11.70;99.90
13174;DHT22;6652;48.802;9.190;2023-05-15T04:03:19;11.70;99.90
13174;DHT22;6652;48.802;9.190;2023-05-15T04:05:46;11.70;99.90
13174;DHT22;6652;48.802;9.190;2023-05-15T04:08:14;11.80;99.90
13174;DHT22;6652;48.802;9.190;2023-05-15T04:10:41;11.90;99.90
13174;DHT22;6652;48.802;9.190;2023-05-15T04:13:09;12.00;99.90
13174;DHT22;6652;48.802;9.190;2023-05-15T04:15:36;12.20;99.90
13174;DHT22;6652;48.802;9.190;2023-05-15T04:18:03;12.30;99.90
13174;DHT22;6652;48.802;9.190;2023-05-15T04:20:29;12.50;99.90
13174;DHT22;6652;48.802;9.190;2023-05-15T04:22:58;12.70;99.90
13174;DHT22;6652;48.802;9.190;2023-05-15T07:42:46;30.90;66.90
13174;DHT22;6652;48.802;9.190;2023-05-15T07:45:13;31.10;66.80
13174;DHT22;6652;48.802;9.190;2023-05-15T07:47:44;31.30;65.70
13174;DHT22;6652;48.802;9.190;2023-05-15T07:50:11;31.40;65.40
13174;DHT22;6652;48.802;9.190;2023-05-15T07:52:39;31.80;65.30
13174;DHT22;6652;48.802;9.190;2023-05-15T07:55:08;31.80;63.20
13174;DHT22;6652;48.802;9.190;2023-05-15T07:57:35;31.50;63.00
13174;DHT22;6652;48.802;9.190;2023-05-15T08:00:05;31.30;62.30
13174;DHT22;6652;48.802;9.190;2023-05-15T08:02:35;31.40;63.60
13174;DHT22;6652;48.802;9.190;2023-05-15T08:05:03;31.80;63.20
13174;DHT22;6652;48.802;9.190;2023-05-15T08:07:30;31.60;62.40
13174;DHT22;6652;48.802;9.190;2023-05-15T08:09:58;31.70;63.00
13174;DHT22;6652;48.802;9.190;2023-05-15T08:12:25;32.30;62.80
13174;DHT22;6652;48.802;9.190;2023-05-15T08:14:53;32.80;61.70
13174;DHT22;6652;48.802;9.190;2023-05-15T08:17:22;32.80;59.50
13174;DHT22;6652;48.802;9.190;2023-05-15T08:19:49;32.70;59.20
13174;DHT22;6652;48.802;9.190;2023-05-15T08:22:16;32.70;58.70
13174;DHT22;6652;48.802;9.190;2023-05-15T08:24:43;32.80;59.10
13174;DHT22;6652;48.802;9.190;2023-05-15T08:27:10;32.10;58.30
13174;DHT22;6652;48.802;9.190;2023-05-15T08:29:37;31.70;58.70
13174;DHT22;6652;48.802;9.190;2023-05-15T08:32:05;31.70;58.50
13174;DHT22;6652;48.802;9.190;2023-05-15T08:34:34;31.90;58.80
13174;DHT22;6652;48.802;9.190;2023-05-15T08:37:00;31.90;58.30
13174;DHT22;6652;48.802;9.190;2023-05-15T08:39:27;31.70;59.20
13174;DHT22;6652;48.802;9.190;2023-05-15T08:41:57;31.90;59.80
13174;DHT22;6652;48.802;9.190;2023-05-15T08:44:24;32.10;59.00
13174;DHT22;6652;48.802;9.190;2023-05-15T08:46:52;32.60;58.70
13174;DHT22;6652;48.802;9.190;2023-05-15T08:49:23;32.10;58.10
13174;DHT22;6652;48.802;9.190;2023-05-15T08:51:54;30.70;59.80
13174;DHT22;6652;48.802;9.190;2023-05-15T08:54:24;30.40;59.90
13174;DHT22;6652;48.802;9.190;2023-05-15T08:56:52;31.10;59.80
13174;DHT22;6652;48.802;9.190;2023-05-15T08:59:19;31.50;59.40
13174;DHT22;6652;48.802;9.190;2023-05-15T09:01:46;32.10;59.50
13174;DHT22;6652;48.802;9.190;2023-05-15T09:04:14;32.50;57.30
13174;DHT22;6652;48.802;9.190;2023-05-15T09:06:42;31.90;56.70
13174;DHT22;6652;48.802;9.190;2023-05-15T09:09:11;31.60;58.00
13174;DHT22;6652;48.802;9.190;2023-05-15T09:11:42;31.80;57.40
13174;DHT22;6652;48.802;9.190;2023-05-15T09:14:10;31.30;58.50
13174;DHT22;6652;48.802;9.190;2023-05-15T09:16:36;31.90;58.50
13174;DHT22;6652;48.802;9.190;2023-05-15T09:19:04;30.80;58.40
13174;DHT22;6652;48.802;9.190;2023-05-15T09:21:31;29.30;59.80
13174;DHT22;6652;48.802;9.190;2023-05-15T09:24:18;27.80;63.10
13174;DHT22;6652;48.802;9.190;2023-05-15T09:26:46;26.50;65.60
13174;DHT22;6652;48.802;9.190;2023-05-15T09:29:16;25.70;68.40
13174;DHT22;6652;48.802;9.190;2023-05-15T09:31:45;26.30;70.80
13174;DHT22;6652;48.802;9.190;2023-05-15T09:34:12;26.50;68.50
13174;DHT22;6652;48.802;9.190;2023-05-15T09:36:42;25.80;69.40
13174;DHT22;6652;48.802;9.190;2023-05-15T09:39:09;26.30;71.00
13174;DHT22;6652;48.802;9.190;2023-05-15T09:41:40;27.10;70.40
13174;DHT22;6652;48.802;9.190;2023-05-15T09:44:17;28.60;68.10
13174;DHT22;6652;48.802;9.190;2023-05-15T09:46:44;29.60;66.10
13174;DHT22;6652;48.802;9.190;2023-05-15T09:49:11;30.40;62.50
13174;DHT22;6652;48.802;9.190;2023-05-15T09:51:38;30.80;62.00
13174;DHT22;6652;48.802;9.190;2023-05-15T09:54:06;30.60;59.60
13174;DHT22;6652;48.802;9.190;2023-05-15T09:56:42;30.90;59.30
13174;DHT22;6652;48.802;9.190;2023-05-15T09:59:12;31.20;58.80
13174;DHT22;6652;48.802;9.190;2023-05-15T10:01:42;31.10;58.30
13174;DHT22;6652;48.802;9.190;2023-05-15T10:04:11;31.10;58.20
13174;DHT22;6652;48.802;9.190;2023-05-15T10:06:39;31.20;57.30
13174;DHT22;6652;48.802;9.190;2023-05-15T10:09:07;31.20;57.50
13174;DHT22;6652;48.802;9.190;2023-05-15T10:11:36;31.30;59.00
13174;DHT22;6652;48.802;9.190;2023-05-15T10:14:06;31.40;58.60
13174;DHT22;6652;48.802;9.190;2023-05-15T10:16:34;31.70;57.90
13174;DHT22;6652;48.802;9.190;2023-05-15T10:20:27;31.30;56.60
13174;DHT22;6652;48.802;9.190;2023-05-15T10:22:57;29.60;58.30
13174;DHT22;6652;48.802;9.190;2023-05-15T10:25:32;29.90;58.70
13174;DHT22;6652;48.802;9.190;2023-05-15T10:28:03;30.00;57.60
13174;DHT22;6652;48.802;9.190;2023-05-15T10:30:32;29.90;58.50
13174;DHT22;6652;48.802;9.190;2023-05-15T10:32:59;30.30;59.00
13174;DHT22;6652;48.802;9.190;2023-05-15T10:35:27;30.70;58.40
13174;DHT22;6652;48.802;9.190;2023-05-15T10:37:54;29.30;57.90
13174;DHT22;6652;48.802;9.190;2023-05-15T10:40:22;28.30;59.40
13174;DHT22;6652;48.802;9.190;2023-05-15T10:42:49;27.40;63.00
13174;DHT22;6652;48.802;9.190;2023-05-15T10:45:16;26.90;63.70
13174;DHT22;6652;48.802;9.190;2023-05-15T10:47:45;26.60;64.80
13174;DHT22;6652;48.802;9.190;2023-05-15T10:50:12;26.00;66.60
13174;DHT22;6652;48.802;9.190;2023-05-15T10:52:40;25.30;66.20
13174;DHT22;6652;48.802;9.190;2023-05-15T10:55:12;25.40;67.00
13174;DHT22;6652;48.802;9.190;2023-05-15T10:57:39;24.70;68.90
13174;DHT22;6652;48.802;9.190;2023-05-15T11:00:23;24.50;68.50
13174;DHT22;6652;48.802;9.190;2023-05-15T11:02:52;24.10;68.80
13174;DHT22;6652;48.802;9.190;2023-05-15T11:05:22;24.00;70.40
13174;DHT22;6652;48.802;9.190;2023-05-15T11:08:23;24.00;69.90
13174;DHT22;6652;48.802;9.190;2023-05-15T11:10:51;24.10;70.00
13174;DHT22;6652;48.802;9.190;2023-05-15T11:13:19;24.10;68.80
13174;DHT22;6652;48.802;9.190;2023-05-15T11:15:47;24.30;69.60
13174;DHT22;6652;48.802;9.190;2023-05-15T11:18:15;23.50;70.00
13174;DHT22;6652;48.802;9.190;2023-05-15T11:21:06;23.20;70.80
13174;DHT22;6652;48.802;9.190;2023-05-15T11:23:38;22.90;71.60
13174;DHT22;6652;48.802;9.190;2023-05-15T11:26:06;22.70;71.70
13174;DHT22;6652;48.802;9.190;2023-05-15T11:28:40;22.90;72.00
13174;DHT22;6652;48.802;9.190;2023-05-15T11:31:08;23.10;71.80
13174;DHT22;6652;48.802;9.190;2023-05-15T11:33:37;23.30;71.30
13174;DHT22;6652;48.802;9.190;2023-05-15T11:36:06;23.60;71.80
13174;DHT22;6652;48.802;9.190;2023-05-15T11:38:38;24.10;73.00
13174;DHT22;6652;48.802;9.190;2023-05-15T11:41:17;24.30;69.20
13174;DHT22;6652;48.802;9.190;2023-05-15T11:43:44;24.20;68.90
13174;DHT22;6652;48.802;9.190;2023-05-15T11:46:12;23.90;69.40
13174;DHT22;6652;48.802;9.190;2023-05-15T11:48:40;23.60;69.70
13174;DHT22;6652;48.802;9.190;2023-05-15T11:51:15;23.40;70.20
13174;DHT22;6652;48.802;9.190;2023-05-15T11:53:43;23.40;70.40
13174;DHT22;6652;48.802;9.190;2023-05-15T11:56:12;23.40;71.10
13174;DHT22;6652;48.802;9.190;2023-05-15T11:58:42;23.70;69.00
13174;DHT22;6652;48.802;9.190;2023-05-15T12:01:09;23.90;69.50
13174;DHT22;6652;48.802;9.190;2023-05-15T12:03:37;24.20;69.30
13174;DHT22;6652;48.802;9.190;2023-05-15T12:06:04;24.40;69.50
13174;DHT22;6652;48.802;9.190;2023-05-15T12:08:32;24.70;70.60
13174;DHT22;6652;48.802;9.190;2023-05-15T12:11:00;25.00;68.30
13174;DHT22;6652;48.802;9.190;2023-05-15T12:13:28;24.70;66.40
13174;DHT22;6652;48.802;9.190;2023-05-15T12:15:55;24.30;65.70
13174;DHT22;6652;48.802;9.190;2023-05-15T12:18:22;24.20;67.20
13174;DHT22;6652;48.802;9.190;2023-05-15T12:20:51;24.50;68.50
13174;DHT22;6652;48.802;9.190;2023-05-15T12:23:20;24.60;66.30
13174;DHT22;6652;48.802;9.190;2023-05-15T12:25:51;24.40;68.50
13174;DHT22;6652;48.802;9.190;2023-05-15T12:28:19;24.30;67.30
13174;DHT22;6652;48.802;9.190;2023-05-15T12:30:46;23.80;67.80
13174;DHT22;6652;48.802;9.190;2023-05-15T12:33:14;23.60;68.00
13174;DHT22;6652;48.802;9.190;2023-05-15T12:35:42;23.60;68.10
13174;DHT22;6652;48.802;9.190;2023-05-15T12:38:13;24.00;68.60
13174;DHT22;6652;48.802;9.190;2023-05-15T12:40:42;23.90;68.50
13174;DHT22;6652;48.802;9.190;2023-05-15T12:43:12;24.00;67.10
13174;DHT22;6652;48.802;9.190;2023-05-15T12:45:40;23.80;67.70
13174;DHT22;6652;48.802;9.190;2023-05-15T12:48:13;25.10;69.70
13174;DHT22;6652;48.802;9.190;2023-05-15T12:50:42;23.30;67.90
13174;DHT22;6652;48.802;9.190;2023-05-15T12:53:12;23.20;68.50
13174;DHT22;6652;48.802;9.190;2023-05-15T12:55:40;22.80;70.40
13174;DHT22;6652;48.802;9.190;2023-05-15T12:58:08;22.40;72.20
13174;DHT22;6652;48.802;9.190;2023-05-15T13:00:39;22.00;72.00
13174;DHT22;6652;48.802;9.190;2023-05-15T13:03:08;21.60;72.40
13174;DHT22;6652;48.802;9.190;2023-05-15T13:05:36;21.20;72.30
13174;DHT22;6652;48.802;9.190;2023-05-15T13:08:04;21.00;72.80
13174;DHT22;6652;48.802;9.190;2023-05-15T13:10:33;21.10;73.10
13174;DHT22;6652;48.802;9.190;2023-05-15T13:13:00;21.30;73.70
13174;DHT22;6652;48.802;9.190;2023-05-15T13:15:29;21.50;74.00
13174;DHT22;6652;48.802;9.190;2023-05-15T13:18:01;21.50;74.90
13174;DHT22;6652;48.802;9.190;2023-05-15T13:20:29;21.60;74.20
13174;DHT22;6652;48.802;9.190;2023-05-15T13:22:57;21.30;74.70
13174;DHT22;6652;48.802;9.190;2023-05-15T13:25:24;21.20;74.80
13174;DHT22;6652;48.802;9.190;2023-05-15T13:27:51;21.00;75.80
13174;DHT22;6652;48.802;9.190;2023-05-15T13:30:18;20.90;76.10
13174;DHT22;6652;48.802;9.190;2023-05-15T13:32:45;20.90;76.80
13174;DHT22;6652;48.802;9.190;2023-05-15T13:35:14;21.00;77.30
13174;DHT22;6652;48.802;9.190;2023-05-15T13:37:41;21.30;77.70
13174;DHT22;6652;48.802;9.190;2023-05-15T13:40:09;21.40;77.20
13174;DHT22;6652;48.802;9.190;2023-05-15T13:42:37;21.30;76.60
13174;DHT22;6652;48.802;9.190;2023-05-15T13:45:06;21.10;76.40
13174;DHT22;6652;48.802;9.190;2023-05-15T13:47:33;21.00;77.40
13174;DHT22;6652;48.802;9.190;2023-05-15T13:50:00;21.10;78.00
13174;DHT22;6652;48.802;9.190;2023-05-15T13:52:29;21.20;77.30
13174;DHT22;6652;48.802;9.190;2023-05-15T13:54:56;21.20;79.60
13174;DHT22;6652;48.802;9.190;2023-05-15T13:57:23;21.20;81.20
13174;DHT22;6652;48.802;9.190;2023-05-15T13:59:50;21.20;81.60
13174;DHT22;6652;48.802;9.190;2023-05-15T14:02:16;21.20;84.00
13174;DHT22;6652;48.802;9.190;2023-05-15T14:04:45;21.20;85.50
13174;DHT22;6652;48.802;9.190;2023-05-15T14:07:12;21.30;85.30
13174;DHT22;6652;48.802;9.190;2023-05-15T14:09:40;21.20;83.30
13174;DHT22;6652;48.802;9.190;2023-05-15T14:12:08;21.30;83.80
13174;DHT22;6652;48.802;9.190;2023-05-15T14:14:36;21.10;83.60
13174;DHT22;6652;48.802;9.190;2023-05-15T14:17:03;21.10;84.20
13174;DHT22;6652;48.802;9.190;2023-05-15T14:19:30;21.10;82.80
13174;DHT22;6652;48.802;9.190;2023-05-15T14:21:57;21.00;83.60
13174;DHT22;6652;48.802;9.190;2023-05-15T14:24:24;21.00;84.80
13174;DHT22;6652;48.802;9.190;2023-05-15T14:26:52;20.90;84.80
13174;DHT22;6652;48.802;9.190;2023-05-15T14:29:19;20.80;84.60
13174;DHT22;6652;48.802;9.190;2023-05-15T14:31:46;20.80;84.70
13174;DHT22;6652;48.802;9.190;2023-05-15T14:34:15;20.90;85.30
13174;DHT22;6652;48.802;9.190;2023-05-15T14:36:41;21.10;85.50
13174;DHT22;6652;48.802;9.190;2023-05-15T14:39:08;21.10;84.70
13174;DHT22;6652;48.802;9.190;2023-05-15T14:41:35;21.30;84.90
13174;DHT22;6652;48.802;9.190;2023-05-15T14:44:03;21.40;85.00
13174;DHT22;6652;48.802;9.190;2023-05-15T14:46:30;21.60;84.10
13174;DHT22;6652;48.802;9.190;2023-05-15T14:48:57;21.90;83.40
13174;DHT22;6652;48.802;9.190;2023-05-15T14:51:24;22.00;82.30
13174;DHT22;6652;48.802;9.190;2023-05-15T14:53:51;21.90;82.30
13174;DHT22;6652;48.802;9.190;2023-05-15T14:56:17;21.80;82.00
13174;DHT22;6652;48.802;9.190;2023-05-15T14:58:44;21.90;82.40
13174;DHT22;6652;48.802;9.190;2023-05-15T15:01:13;22.00;81.00
13174;DHT22;6652;48.802;9.190;2023-05-15T15:03:40;21.90;78.30
13174;DHT22;6652;48.802;9.190;2023-05-15T15:06:08;22.00;78.90
13174;DHT22;6652;48.802;9.190;2023-05-15T15:08:35;21.10;79.20
13174;DHT22;6652;48.802;9.190;2023-05-15T15:11:01;20.80;80.10
13174;DHT22;6652;48.802;9.190;2023-05-15T15:13:29;20.60;81.20
13174;DHT22;6652;48.802;9.190;2023-05-15T15:15:56;20.40;80.70
13174;DHT22;6652;48.802;9.190;2023-05-15T15:18:24;20.20;81.20
13174;DHT22;6652;48.802;9.190;2023-05-15T15:20:51;20.00;81.80
13174;DHT22;6652;48.802;9.190;2023-05-15T15:23:18;20.00;82.30
13174;DHT22;6652;48.802;9.190;2023-05-15T15:25:45;19.60;80.50
13174;DHT22;6652;48.802;9.190;2023-05-15T15:28:12;19.40;81.20
13174;DHT22;6652;48.802;9.190;2023-05-15T15:30:39;19.20;82.10
13174;DHT22;6652;48.802;9.190;2023-05-15T15:33:06;19.10;83.90
13174;DHT22;6652;48.802;9.190;2023-05-15T15:35:34;19.10;87.00
13174;DHT22;6652;48.802;9.190;2023-05-15T15:38:01;19.80;89.20
13174;DHT22;6652;48.802;9.190;2023-05-15T15:40:28;19.00;90.50
13174;DHT22;6652;48.802;9.190;2023-05-15T15:42:55;19.00;90.30
13174;DHT22;6652;48.802;9.190;2023-05-15T15:45:21;19.00;90.70
13174;DHT22;6652;48.802;9.190;2023-05-15T15:47:48;18.90;90.90
13174;DHT22;6652;48.802;9.190;2023-05-15T15:50:15;18.70;91.20
13174;DHT22;6652;48.802;9.190;2023-05-15T15:52:43;18.50;91.70
13174;DHT22;6652;48.802;9.190;2023-05-15T15:55:11;18.30;92.30
13174;DHT22;6652;48.802;9.190;2023-05-15T15:57:38;18.10;92.30
13174;DHT22;6652;48.802;9.190;2023-05-15T16:00:06;18.20;92.30
13174;DHT22;6652;48.802;9.190;2023-05-15T16:02:34;17.90;92.10
13174;DHT22;6652;48.802;9.190;2023-05-15T16:05:00;17.90;92.20
13174;DHT22;6652;48.802;9.190;2023-05-15T16:07:28;17.80;92.40
13174;DHT22;6652;48.802;9.190;2023-05-15T16:09:56;17.80;92.90
13174;DHT22;6652;48.802;9.190;2023-05-15T16:12:23;17.80;92.90
13174;DHT22;6652;48.802;9.190;2023-05-15T16:14:50;17.80;92.60
13174;DHT22;6652;48.802;9.190;2023-05-15T16:17:17;17.80;92.50
13174;DHT22;6652;48.802;9.190;2023-05-15T16:19:45;18.60;92.30
13174;DHT22;6652;48.802;9.190;2023-05-15T16:22:12;17.80;91.90
13174;DHT22;6652;48.802;9.190;2023-05-15T16:24:39;17.70;91.30
13174;DHT22;6652;48.802;9.190;2023-05-15T17:32:01;18.00;93.20
13174;DHT22;6652;48.802;9.190;2023-05-15T17:34:35;18.00;92.80
13174;DHT22;6652;48.802;9.190;2023-05-15T17:37:02;18.10;92.70
13174;DHT22;6652;48.802;9.190;2023-05-15T17:39:30;18.10;92.00
13174;DHT22;6652;48.802;9.190;2023-05-15T17:41:58;18.40;91.90
13174;DHT22;6652;48.802;9.190;2023-05-15T17:44:27;18.00;91.70
13174;DHT22;6652;48.802;9.190;2023-05-15T17:46:57;18.50;92.00
13174;DHT22;6652;48.802;9.190;2023-05-15T17:49:27;17.90;91.80
13174;DHT22;6652;48.802;9.190;2023-05-15T17:52:02;17.80;91.80
13174;DHT22;6652;48.802;9.190;2023-05-15T17:54:32;17.70;92.10
13174;DHT22;6652;48.802;9.190;2023-05-15T17:57:00;17.60;92.40
13174;DHT22;6652;48.802;9.190;2023-05-15T17:59:27;17.50;92.60
13174;DHT22;6652;48.802;9.190;2023-05-15T18:01:57;17.40;92.90
13174;DHT22;6652;48.802;9.190;2023-05-15T18:04:24;17.10;93.20
13174;DHT22;6652;48.802;9.190;2023-05-15T18:06:54;17.00;93.90
13174;DHT22;6652;48.802;9.190;2023-05-15T18:09:21;17.00;94.30
13174;DHT22;6652;48.802;9.190;2023-05-15T18:11:52;17.60;95.30
13174;DHT22;6652;48.802;9.190;2023-05-15T18:14:19;16.50;95.10
13174;DHT22;6652;48.802;9.190;2023-05-15T18:16:53;16.60;95.90
13174;DHT22;6652;48.802;9.190;2023-05-15T18:19:27;16.40;96.30
13174;DHT22;6652;48.802;9.190;2023-05-15T18:21:57;16.50;97.10
13174;DHT22;6652;48.802;9.190;2023-05-15T18:24:32;16.20;98.00
13174;DHT22;6652;48.802;9.190;2023-05-15T18:27:00;16.10;98.90
13174;DHT22;6652;48.802;9.190;2023-05-15T18:29:37;16.10;99.40
13174;DHT22;6652;48.802;9.190;2023-05-15T18:32:09;16.00;99.90
13174;DHT22;6652;48.802;9.190;2023-05-15T18:34:48;15.90;99.90
13174;DHT22;6652;48.802;9.190;2023-05-15T18:37:58;15.20;99.90
13174;DHT22;6652;48.802;9.190;2023-05-15T18:40:45;15.90;99.90
13174;DHT22;6652;48.802;9.190;2023-05-15T18:43:13;16.20;99.90
13174;DHT22;6652;48.802;9.190;2023-05-15T18:56:47;15.70;99.90
13174;DHT22;6652;48.802;9.190;2023-05-15T18:59:37;15.60;99.90
13174;DHT22;6652;48.802;9.190;2023-05-15T19:05:48;15.50;99.90
13174;DHT22;6652;48.802;9.190;2023-05-15T19:19:27;15.40;99.90
13174;DHT22;6652;48.802;9.190;2023-05-15T19:21:58;15.30;99.90
13174;DHT22;6652;48.802;9.190;2023-05-15T19:24:27;15.20;99.90
13174;DHT22;6652;48.802;9.190;2023-05-15T20:48:50;14.40;99.90
13174;DHT22;6652;48.802;9.190;2023-05-15T20:51:42;14.40;99.90
13174;DHT22;6652;48.802;9.190;2023-05-15T20:54:23;14.40;99.90
13174;DHT22;6652;48.802;9.190;2023-05-15T22:29:59;13.60;99.90
13174;DHT22;6652;48.802;9.190;2023-05-15T22:32:26;13.60;99.90
13174;DHT22;6652;48.802;9.190;2023-05-15T22:34:54;13.60;99.90
13174;DHT22;6652;48.802;9.190;2023-05-15T22:37:21;13.60;99.90
13174;DHT22;6652;48.802;9.190;2023-05-15T22:39:48;13.50;99.90
13174;DHT22;6652;48.802;9.190;2023-05-15T22:42:14;13.60;99.90
13174;DHT22;6652;48.802;9.190;2023-05-15T22:44:42;13.50;99.90
13174;DHT22;6652;48.802;9.190;2023-05-15T22:47:10;13.50;99.90
13174;DHT22;6652;48.802;9.190;2023-05-15T22:49:37;13.50;99.90
13174;DHT22;6652;48.802;9.190;2023-05-15T22:52:04;13.50;99.90
13174;DHT22;6652;48.802;9.190;2023-05-15T22:54:31;13.50;99.90
13174;DHT22;6652;48.802;9.190;2023-05-15T22:56:58;13.40;99.90
13174;DHT22;6652;48.802;9.190;2023-05-15T22:59:24;13.40;99.90
13174;DHT22;6652;48.802;9.190;2023-05-15T23:01:51;13.40;99.90
13174;DHT22;6652;48.802;9.190;2023-05-15T23:04:19;13.30;99.90
13174;DHT22;6652;48.802;9.190;2023-05-15T23:06:47;13.30;99.90
13174;DHT22;6652;48.802;9.190;2023-05-15T23:09:14;13.30;99.90
13174;DHT22;6652;48.802;9.190;2023-05-15T23:11:41;13.30;99.90
13174;DHT22;6652;48.802;9.190;2023-05-15T23:14:08;13.30;99.90
13174;DHT22;6652;48.802;9.190;2023-05-15T23:16:36;13.20;99.90
13174;DHT22;6652;48.802;9.190;2023-05-15T23:19:04;13.20;99.90
13174;DHT22;6652;48.802;9.190;2023-05-15T23:21:32;13.20;99.90
13174;DHT22;6652;48.802;9.190;2023-05-15T23:23:59;13.20;99.90
13174;DHT22;6652;48.802;9.190;2023-05-15T23:26:26;13.30;99.90
13174;DHT22;6652;48.802;9.190;2023-05-15T23:28:53;13.10;99.90
13174;DHT22;6652;48.802;9.190;2023-05-15T23:31:19;13.10;99.90
13174;DHT22;6652;48.802;9.190;2023-05-15T23:33:46;13.10;99.90
13174;DHT22;6652;48.802;9.190;2023-05-15T23:36:13;13.10;99.90
13174;DHT22;6652;48.802;9.190;2023-05-15T23:38:41;13.00;99.90
13174;DHT22;6652;48.802;9.190;2023-05-15T23:41:08;13.00;99.90